Поточна погода

  • DecodeMetar

    METAR UKBB 212000Z 01003MPS 9999 BKN009 12/11 Q1021 R88/CLRD// NOSIG

    Регулярне зведення по аеродрому Київ/Бориспіль за 20:00 UTC.

    Напрямок вітру: 10°.

    Швидкість вітру: 3 м/с.

    Видимість: більше 10 км.

    Стан неба: хмарність значна (5-7 окт) на висоті 270 м.

    Температура: повітря 12 °C, точки роси 11 °C.

    Вологість: 93%.

    Атмосферний тиск: 1021 гПа.

    Стан на всіх ЗПС: чисто, умови гальмування не повідомляються.

    Прогноз на 2 години. Без суттєвих змін.


    METAR UKKK 212000Z 03003MPS 9999 BKN013 13/11 Q1022 R08/CLRD70 NOSIG

    Регулярне зведення по аеродрому Київ/Жуляни за 20:00 UTC.

    Напрямок вітру: 30°.

    Швидкість вітру: 3 м/с.

    Видимість: більше 10 км.

    Стан неба: хмарність значна (5-7 окт) на висоті 390 м.

    Температура: повітря 13 °C, точки роси 11 °C.

    Вологість: 87%.

    Атмосферний тиск: 1022 гПа.

    Стан ЗПС 08 чисто, коефіцієнт тертя 0.7.

    Прогноз на 2 години. Без суттєвих змін.


    Зведення по аеродрому Київ/Антонов-2 (Гостомель) - відсутнє.


    Зведення по аеродрому Київ/Антонов-1 (Святошин) - відсутнє.